Time;durP1;ratioP1;P1;durP2;ratioP2;P2;SDS_P1;SDS_P2;PMS_P1;PMS_P2;Temp;Humidity;BMP_temperature;BMP_pressure;BME280_temperature;BME280_humidity;BME280_pressure;Samples;Min_cycle;Max_cycle;Signal;HPM_P1;HPM_P2
2021/05/12 00:00:15;;;;;;;1.85;0.90;;;;;;;11.08;88.43;95987.22;5085808;28;20041;-74
2021/05/12 00:02:41;;;;;;;1.60;1.50;;;;;;;11.10;88.57;95984.38;5086740;28;20049;-74
2021/05/12 00:05:09;;;;;;;1.30;1.30;;;;;;;11.09;88.39;95986.22;5090200;28;20461;-73
2021/05/12 00:07:35;;;;;;;1.17;1.08;;;;;;;11.10;88.68;95994.88;5079392;28;20072;-74
2021/05/12 00:10:08;;;;;;;1.30;1.20;;;;;;;11.08;88.84;96005.59;5080192;28;20059;-74
2021/05/12 00:12:35;;;;;;;1.50;1.13;;;;;;;11.09;88.64;96001.16;5083233;28;20437;-73
2021/05/12 00:15:08;;;;;;;1.08;1.08;;;;;;;11.06;88.73;96007.66;5084129;28;20056;-75
2021/05/12 00:17:36;;;;;;;1.20;1.20;;;;;;;11.06;88.69;96001.63;5083718;28;20037;-75
2021/05/12 00:20:07;;;;;;;1.00;1.00;;;;;;;11.05;88.77;96006.06;5083986;28;20487;-75
2021/05/12 00:22:38;;;;;;;1.17;1.08;;;;;;;11.06;88.73;96006.88;5088269;28;20487;-76
2021/05/12 00:25:09;;;;;;;1.10;1.05;;;;;;;11.08;88.87;96017.94;5075248;28;20040;-74
2021/05/12 00:27:35;;;;;;;1.10;1.10;;;;;;;11.07;88.59;96013.72;5084388;28;20041;-75
2021/05/12 00:30:07;;;;;;;1.08;0.95;;;;;;;11.06;88.56;96022.59;5089312;28;20040;-74
2021/05/12 00:32:33;;;;;;;1.10;1.00;;;;;;;11.05;88.88;96019.19;5083752;28;20043;-74
2021/05/12 00:35:04;;;;;;;1.85;1.52;;;;;;;11.05;88.85;96016.56;5078888;28;20044;-75
2021/05/12 00:37:30;;;;;;;1.10;0.95;;;;;;;11.00;88.86;96020.91;5085192;28;20048;-73
2021/05/12 00:39:57;;;;;;;0.90;0.90;;;;;;;10.96;88.82;96013.50;5085888;28;20034;-74
2021/05/12 00:42:30;;;;;;;1.20;1.20;;;;;;;10.94;88.95;96018.19;5077682;28;20036;-74
2021/05/12 00:44:58;;;;;;;1.48;0.90;;;;;;;10.86;88.65;96021.16;5074737;28;20036;-74
2021/05/12 00:47:30;;;;;;;1.95;0.90;;;;;;;10.84;89.10;96025.84;5083441;28;20456;-74
2021/05/12 00:49:56;;;;;;;1.00;1.00;;;;;;;10.81;89.01;96028.13;5080010;28;20044;-76
2021/05/12 00:52:23;;;;;;;0.90;0.90;;;;;;;10.77;89.12;96022.53;5078525;28;20036;-75
2021/05/12 00:54:50;;;;;;;2.22;0.77;;;;;;;10.76;89.26;96026.19;5086017;28;20037;-75
2021/05/12 00:57:16;;;;;;;0.70;0.70;;;;;;;10.75;89.16;96025.38;5083792;28;20045;-75
2021/05/12 00:59:45;;;;;;;1.25;1.17;;;;;;;10.71;88.90;96032.13;5084708;28;20037;-75
2021/05/12 01:02:11;;;;;;;0.68;0.68;;;;;;;10.69;88.92;96030.75;5086513;28;20039;-74
2021/05/12 01:04:38;;;;;;;0.50;0.50;;;;;;;10.65;88.45;96030.41;5079339;28;20028;-74
2021/05/12 01:07:05;;;;;;;0.70;0.70;;;;;;;10.63;88.67;96031.66;5084345;28;20047;-76
2021/05/12 01:09:32;;;;;;;1.17;0.60;;;;;;;10.56;87.82;96034.38;5087435;28;20051;-75
2021/05/12 01:11:59;;;;;;;0.60;0.60;;;;;;;10.51;88.23;96034.28;5086679;28;20036;-75
2021/05/12 01:14:25;;;;;;;0.40;0.40;;;;;;;10.49;88.48;96039.75;5078086;28;20039;-74
2021/05/12 01:16:52;;;;;;;0.50;0.40;;;;;;;10.47;88.49;96036.53;5084551;28;20036;-75
2021/05/12 01:19:18;;;;;;;0.50;0.50;;;;;;;10.43;87.97;96045.88;5077356;28;20503;-75
2021/05/12 01:21:44;;;;;;;0.47;0.47;;;;;;;10.35;87.92;96044.41;5082043;28;20041;-75
2021/05/12 01:24:11;;;;;;;0.43;0.43;;;;;;;10.28;87.95;96042.88;5082119;28;20040;-76
2021/05/12 01:26:38;;;;;;;0.40;0.40;;;;;;;10.26;88.25;96042.31;5090146;28;20036;-75
2021/05/12 01:29:06;;;;;;;0.35;0.30;;;;;;;10.29;88.52;96049.69;5080857;28;20043;-75
2021/05/12 01:31:34;;;;;;;1.20;0.40;;;;;;;10.31;88.25;96051.13;5081401;28;20039;-75
2021/05/12 01:34:03;;;;;;;0.30;0.30;;;;;;;10.33;88.47;96049.06;5078863;28;20057;-75
2021/05/12 01:36:31;;;;;;;0.50;0.47;;;;;;;10.34;88.03;96047.25;5082634;28;20347;-76
2021/05/12 01:38:58;;;;;;;0.30;0.30;;;;;;;10.28;87.55;96051.53;5083394;28;20388;-75
2021/05/12 01:41:26;;;;;;;1.25;0.52;;;;;;;10.25;87.85;96049.38;5084300;28;20135;-76
2021/05/12 01:43:53;;;;;;;1.05;0.40;;;;;;;10.21;87.71;96053.47;5079915;28;20036;-75
2021/05/12 01:46:19;;;;;;;0.40;0.40;;;;;;;10.19;87.46;96055.50;5086548;28;20082;-75
2021/05/12 01:48:46;;;;;;;0.50;0.43;;;;;;;10.20;87.49;96059.72;5083183;28;20052;-76
2021/05/12 01:51:14;;;;;;;0.35;0.35;;;;;;;10.14;87.38;96052.75;5081403;28;20047;-75
2021/05/12 01:53:44;;;;;;;0.20;0.20;;;;;;;10.11;87.65;96056.63;5076189;28;20036;-76
2021/05/12 01:56:11;;;;;;;0.38;0.38;;;;;;;10.13;87.19;96051.97;5083668;28;20051;-75
2021/05/12 01:58:38;;;;;;;0.40;0.40;;;;;;;10.11;87.07;96048.75;5086496;28;20036;-75
2021/05/12 02:01:04;;;;;;;1.20;0.68;;;;;;;10.11;87.37;96053.22;5083816;28;20051;-74
2021/05/12 02:03:31;;;;;;;0.40;0.40;;;;;;;10.07;86.99;96041.59;5082315;28;20047;-74
2021/05/12 02:05:57;;;;;;;0.73;0.50;;;;;;;10.03;86.98;96040.44;5083052;28;20067;-74
2021/05/12 02:08:25;;;;;;;1.00;0.60;;;;;;;10.02;87.28;96044.09;5084290;28;20052;-74
2021/05/12 02:10:55;;;;;;;1.08;0.65;;;;;;;10.07;87.65;96038.97;5088986;28;20040;-74
2021/05/12 02:13:24;;;;;;;1.15;0.70;;;;;;;10.08;87.10;96040.53;5081991;28;20036;-75
2021/05/12 02:15:51;;;;;;;0.55;0.50;;;;;;;10.09;87.47;96048.19;5081181;28;20032;-75
2021/05/12 02:18:17;;;;;;;0.75;0.70;;;;;;;10.11;87.22;96051.38;5086348;28;20036;-74
2021/05/12 02:20:43;;;;;;;1.52;0.73;;;;;;;10.14;87.36;96050.94;5092122;28;20040;-74
2021/05/12 02:23:12;;;;;;;0.60;0.60;;;;;;;10.14;86.78;96058.00;5081945;28;20042;-74
2021/05/12 02:25:40;;;;;;;0.85;0.80;;;;;;;10.07;86.59;96044.19;5086714;28;20071;-75
2021/05/12 02:28:07;;;;;;;0.80;0.80;;;;;;;10.03;86.51;96050.91;5090697;28;20388;-74
2021/05/12 02:30:34;;;;;;;1.02;0.77;;;;;;;10.02;86.94;96039.63;5086480;28;20040;-74
2021/05/12 02:33:01;;;;;;;0.90;0.90;;;;;;;10.02;87.07;96044.09;5095917;28;20056;-74
2021/05/12 02:35:28;;;;;;;0.80;0.80;;;;;;;9.96;86.67;96043.94;5095998;28;20051;-74
2021/05/12 02:37:54;;;;;;;1.40;0.93;;;;;;;9.95;86.96;96039.75;5082492;28;20040;-74
2021/05/12 02:40:22;;;;;;;1.05;0.80;;;;;;;9.93;86.66;96035.72;5085278;28;20049;-73
2021/05/12 02:42:50;;;;;;;1.23;1.13;;;;;;;9.86;86.38;96048.91;5077340;28;20028;-73
2021/05/12 02:45:17;;;;;;;1.50;1.08;;;;;;;9.83;86.49;96044.13;5089604;28;20047;-74
2021/05/12 02:47:57;;;;;;;1.02;0.98;;;;;;;9.82;86.75;96034.66;5085947;28;20036;-74
2021/05/12 02:50:35;;;;;;;1.27;1.20;;;;;;;9.84;86.87;96039.69;5086673;28;20051;-74
2021/05/12 02:53:04;;;;;;;1.65;1.55;;;;;;;9.79;86.76;96043.00;5087839;28;20527;-74
2021/05/12 02:55:31;;;;;;;2.08;1.52;;;;;;;9.79;87.25;96044.81;5089181;28;20032;-74
2021/05/12 02:57:58;;;;;;;1.42;1.33;;;;;;;9.84;87.60;96039.69;5086771;28;20036;-74
2021/05/12 03:00:27;;;;;;;2.85;1.60;;;;;;;9.90;87.69;96049.28;5081499;28;20039;-74
2021/05/12 03:02:54;;;;;;;2.20;1.67;;;;;;;9.93;87.52;96038.34;5085897;28;20032;-75
2021/05/12 03:05:20;;;;;;;1.60;1.50;;;;;;;9.94;87.18;96042.56;5082029;28;20049;-75
2021/05/12 03:07:47;;;;;;;1.63;1.50;;;;;;;9.96;87.53;96041.31;5087884;28;20036;-75
2021/05/12 03:10:17;;;;;;;4.15;1.50;;;;;;;9.96;87.17;96038.69;5085155;28;20044;-74
2021/05/12 03:12:43;;;;;;;2.30;1.95;;;;;;;9.98;87.30;96040.31;5086198;28;20476;-75
2021/05/12 03:15:14;;;;;;;3.28;1.67;;;;;;;9.91;86.92;96038.59;5086223;28;20461;-75
2021/05/12 03:17:40;;;;;;;2.13;1.92;;;;;;;9.81;86.64;96038.31;5079686;28;20036;-75
2021/05/12 03:20:08;;;;;;;2.30;2.10;;;;;;;9.72;86.68;96032.59;5086411;28;20036;-74
2021/05/12 03:22:35;;;;;;;3.83;2.17;;;;;;;9.73;87.33;96043.88;5088245;28;20039;-75
2021/05/12 03:25:01;;;;;;;2.30;2.10;;;;;;;9.74;87.32;96042.84;5080595;28;20413;-74
2021/05/12 03:27:27;;;;;;;2.35;2.20;;;;;;;9.74;87.09;96050.69;5082506;28;20047;-75
2021/05/12 03:29:53;;;;;;;2.42;2.20;;;;;;;9.74;87.30;96051.50;5088268;28;20036;-75
2021/05/12 03:32:19;;;;;;;2.35;2.13;;;;;;;9.75;87.29;96041.81;5081441;28;20040;-74
2021/05/12 03:34:46;;;;;;;2.63;2.42;;;;;;;9.75;87.46;96049.69;5066776;28;20053;-74
2021/05/12 03:37:12;;;;;;;3.42;2.33;;;;;;;9.77;87.44;96052.88;5092510;28;20047;-74
2021/05/12 03:39:38;;;;;;;2.63;2.15;;;;;;;9.79;87.43;96039.56;5084787;28;20039;-74
2021/05/12 03:42:05;;;;;;;3.15;2.50;;;;;;;9.79;87.20;96040.38;5083918;28;20044;-74
2021/05/12 03:44:32;;;;;;;2.50;2.30;;;;;;;9.77;87.26;96039.00;5079964;28;20036;-74
2021/05/12 03:46:58;;;;;;;2.83;2.60;;;;;;;9.75;87.41;96047.84;5084239;28;20052;-74
2021/05/12 03:49:25;;;;;;;3.28;2.60;;;;;;;9.74;87.32;96059.38;5089340;28;20089;-74
2021/05/12 03:51:51;;;;;;;3.92;3.08;;;;;;;9.72;87.39;96057.97;5083126;28;20054;-74
2021/05/12 03:54:17;;;;;;;3.67;3.08;;;;;;;9.70;87.38;96054.78;5083780;28;20492;-74
2021/05/12 03:56:43;;;;;;;4.30;2.80;;;;;;;9.66;87.61;96051.81;5087747;28;20035;-74
2021/05/12 03:59:10;;;;;;;3.20;2.90;;;;;;;9.66;87.54;96053.63;5083596;28;20048;-74
2021/05/12 04:01:36;;;;;;;3.38;2.83;;;;;;;9.67;87.81;96052.59;5083771;28;20039;-74
2021/05/12 04:04:06;;;;;;;2.58;2.30;;;;;;;9.66;88.04;96054.44;5079438;28;20044;-75
2021/05/12 04:06:32;;;;;;;3.47;2.55;;;;;;;9.65;87.81;96052.03;5083574;28;20048;-74
2021/05/12 04:08:58;;;;;;;3.08;2.35;;;;;;;9.65;87.91;96047.59;5091748;28;20047;-73
2021/05/12 04:11:24;;;;;;;2.30;2.10;;;;;;;9.66;88.01;96053.63;5083620;28;20040;-73
2021/05/12 04:13:50;;;;;;;2.88;2.55;;;;;;;9.68;88.10;96051.56;5082334;28;20039;-73
2021/05/12 04:16:17;;;;;;;2.53;2.22;;;;;;;9.70;87.94;96052.16;5084810;28;20071;-73
2021/05/12 04:18:43;;;;;;;2.47;2.10;;;;;;;9.69;88.02;96053.97;5084296;28;20392;-75
2021/05/12 04:21:09;;;;;;;2.78;2.17;;;;;;;9.71;88.27;96051.94;5085221;28;20051;-75
2021/05/12 04:23:35;;;;;;;3.13;2.38;;;;;;;9.71;87.97;96057.19;5085366;28;20047;-74
2021/05/12 04:26:01;;;;;;;2.72;2.33;;;;;;;9.71;87.69;96057.19;5087856;28;20044;-74
2021/05/12 04:28:27;;;;;;;2.42;2.22;;;;;;;9.73;88.12;96056.97;5089618;28;20040;-74
2021/05/12 04:30:54;;;;;;;2.03;1.85;;;;;;;9.75;87.83;96068.00;5082762;28;20044;-74
2021/05/12 04:33:20;;;;;;;3.25;1.88;;;;;;;9.76;87.85;96064.38;5075363;28;20052;-75
2021/05/12 04:35:46;;;;;;;2.38;2.00;;;;;;;9.75;87.65;96068.00;5085142;28;20040;-74
2021/05/12 04:38:12;;;;;;;1.98;1.80;;;;;;;9.77;87.71;96058.13;5088618;28;20036;-74
2021/05/12 04:40:38;;;;;;;2.05;1.85;;;;;;;9.77;87.92;96059.94;5087024;28;20043;-74
2021/05/12 04:43:05;;;;;;;1.50;1.40;;;;;;;9.76;87.53;96059.13;5079186;28;20049;-74
2021/05/12 04:45:31;;;;;;;1.90;1.67;;;;;;;9.77;87.50;96062.56;5083919;28;20378;-74
2021/05/12 04:47:57;;;;;;;2.38;1.55;;;;;;;9.78;87.52;96061.53;5087383;28;20044;-75
2021/05/12 04:50:26;;;;;;;1.75;1.58;;;;;;;9.78;87.31;96059.69;5078744;28;20035;-74
2021/05/12 04:52:53;;;;;;;2.42;1.30;;;;;;;9.77;87.18;96065.97;5082457;28;20040;-74
2021/05/12 04:55:19;;;;;;;2.15;1.42;;;;;;;9.78;87.43;96058.91;5084888;28;20052;-75
2021/05/12 04:57:45;;;;;;;1.35;1.23;;;;;;;9.76;86.87;96077.44;5084432;28;20397;-75
2021/05/12 05:00:13;;;;;;;1.67;1.30;;;;;;;9.72;86.21;96077.13;5082343;28;20040;-75
2021/05/12 05:02:41;;;;;;;1.20;1.17;;;;;;;9.71;86.81;96069.47;5080953;28;20033;-75
2021/05/12 05:05:09;;;;;;;1.48;1.38;;;;;;;9.72;87.05;96071.06;5082532;28;20048;-74
2021/05/12 05:07:36;;;;;;;1.17;1.08;;;;;;;9.74;87.03;96077.69;5086344;28;20028;-74
2021/05/12 05:10:03;;;;;;;1.48;1.00;;;;;;;9.77;87.03;96075.66;5082851;28;20036;-76
2021/05/12 05:12:30;;;;;;;1.33;1.20;;;;;;;9.76;86.68;96080.06;5080253;28;20036;-76
2021/05/12 05:14:57;;;;;;;1.00;0.93;;;;;;;9.80;86.56;96091.69;5082610;28;20046;-75
2021/05/12 05:17:25;;;;;;;1.00;0.95;;;;;;;9.81;86.53;96088.06;5087158;28;20119;-75
2021/05/12 05:19:52;;;;;;;0.75;0.70;;;;;;;9.84;86.57;96092.88;5083268;28;20032;-75
2021/05/12 05:22:19;;;;;;;1.40;0.90;;;;;;;9.84;86.01;96092.06;5085322;28;20051;-75
2021/05/12 05:24:45;;;;;;;1.20;1.02;;;;;;;9.85;85.87;96101.50;5083935;28;20032;-75
2021/05/12 05:27:12;;;;;;;1.10;1.10;;;;;;;9.82;85.39;96100.13;5083412;28;20039;-74
2021/05/12 05:29:38;;;;;;;1.85;1.15;;;;;;;9.75;85.13;96092.38;5084189;28;20044;-76
2021/05/12 05:32:04;;;;;;;1.50;1.00;;;;;;;9.67;84.09;96097.13;5082156;28;20036;-76
2021/05/12 05:34:31;;;;;;;0.70;0.70;;;;;;;9.66;85.00;96101.56;5079110;28;20052;-76
2021/05/12 05:36:57;;;;;;;1.00;0.90;;;;;;;9.71;85.40;96103.50;5084708;28;20492;-75
2021/05/12 05:39:23;;;;;;;0.90;0.90;;;;;;;9.72;85.05;96108.53;5087980;28;20484;-75
2021/05/12 05:41:55;;;;;;;1.67;0.80;;;;;;;9.75;84.96;96107.28;5084462;28;20036;-75
2021/05/12 05:44:22;;;;;;;2.15;0.80;;;;;;;9.80;85.06;96112.66;5086991;28;20423;-75
2021/05/12 05:46:48;;;;;;;1.10;1.10;;;;;;;9.85;85.17;96114.59;5079671;28;20032;-75
2021/05/12 05:49:15;;;;;;;1.15;0.70;;;;;;;9.86;84.70;96118.84;5078341;28;20490;-75
2021/05/12 05:51:41;;;;;;;1.95;1.20;;;;;;;9.86;84.61;96119.63;5089035;28;20045;-75
2021/05/12 05:54:07;;;;;;;1.05;0.82;;;;;;;9.87;84.75;96116.00;5090821;28;20048;-75
2021/05/12 05:56:33;;;;;;;0.70;0.70;;;;;;;9.89;84.86;96127.06;5085216;28;20040;-75
2021/05/12 05:58:59;;;;;;;0.73;0.73;;;;;;;9.90;84.48;96120.00;5087695;28;20044;-75
2021/05/12 06:01:26;;;;;;;0.70;0.68;;;;;;;9.92;84.65;96126.59;5085771;28;20049;-75
2021/05/12 06:03:52;;;;;;;1.02;0.68;;;;;;;9.95;84.06;96125.34;5090963;28;20404;-75
2021/05/12 06:06:18;;;;;;;1.70;0.70;;;;;;;9.95;84.18;96122.75;5083942;28;20036;-75
2021/05/12 06:08:44;;;;;;;0.68;0.65;;;;;;;9.95;84.16;96115.69;5081673;28;20043;-75
2021/05/12 06:11:10;;;;;;;1.17;0.60;;;;;;;9.96;83.86;96117.28;5091433;28;20499;-75
2021/05/12 06:13:37;;;;;;;0.77;0.77;;;;;;;9.94;83.03;96114.09;5089577;28;20044;-75
2021/05/12 06:16:03;;;;;;;1.13;0.77;;;;;;;9.92;83.28;96120.56;5086874;28;20392;-75
2021/05/12 06:18:29;;;;;;;0.60;0.60;;;;;;;9.92;83.62;96118.75;5085807;28;20044;-75
2021/05/12 06:20:56;;;;;;;1.20;0.80;;;;;;;9.93;83.51;96120.38;5086957;28;20039;-74
2021/05/12 06:23:22;;;;;;;0.70;0.55;;;;;;;9.94;83.53;96116.72;5087372;28;20040;-74
2021/05/12 06:25:52;;;;;;;1.95;0.85;;;;;;;9.96;82.99;96113.88;5087907;28;20035;-74
2021/05/12 06:28:19;;;;;;;3.90;3.60;;;;;;;9.94;82.96;96113.28;5087785;28;20376;-75
2021/05/12 06:30:50;;;;;;;5.10;4.70;;;;;;;9.95;83.25;96112.25;5086886;28;20029;-75
2021/05/12 06:33:18;;;;;;;3.03;1.55;;;;;;;9.93;83.21;96119.53;5093127;28;20067;-75
2021/05/12 06:35:45;;;;;;;1.48;1.38;;;;;;;9.90;82.84;96114.75;5096211;28;20040;-75
2021/05/12 06:38:11;;;;;;;1.55;1.30;;;;;;;9.88;82.79;96122.81;5085068;28;20047;-75
2021/05/12 06:40:38;;;;;;;2.22;2.00;;;;;;;9.85;82.57;96125.91;5085683;28;20048;-74
2021/05/12 06:43:05;;;;;;;2.03;1.20;;;;;;;10.02;85.17;96120.84;5086432;28;20476;-76
2021/05/12 06:45:31;;;;;;;1.27;1.10;;;;;;;10.51;86.21;96120.78;5086890;28;20040;-76
2021/05/12 06:47:57;;;;;;;1.83;1.45;;;;;;;10.91;84.40;96120.16;5086623;28;20044;-75
2021/05/12 06:50:24;;;;;;;1.35;1.20;;;;;;;10.90;81.88;96118.56;5085754;28;20028;-75
2021/05/12 06:52:56;;;;;;;1.13;1.05;;;;;;;10.85;80.66;96115.81;5087349;28;20028;-75
2021/05/12 06:55:24;;;;;;;7.13;6.38;;;;;;;10.77;80.75;96112.50;5086994;28;20460;-75
2021/05/12 06:57:50;;;;;;;2.70;2.25;;;;;;;10.58;80.17;96116.22;5086847;28;20037;-75
2021/05/12 07:00:17;;;;;;;8.25;7.55;;;;;;;10.47;80.73;96114.41;5085587;28;20032;-75
2021/05/12 07:02:44;;;;;;;5.78;5.20;;;;;;;10.43;80.61;96118.50;5087540;28;20500;-75
2021/05/12 07:05:19;;;;;;;2.65;1.40;;;;;;;10.31;80.23;96116.66;5086354;28;20036;-75
2021/05/12 07:07:46;;;;;;;2.70;2.40;;;;;;;10.23;80.44;96121.38;5083524;28;20488;-75
2021/05/12 07:10:14;;;;;;;1.60;1.50;;;;;;;10.24;80.79;96126.38;5084660;28;20044;-75
2021/05/12 07:12:40;;;;;;;3.40;3.10;;;;;;;10.25;80.72;96124.59;5091255;28;20031;-75
2021/05/12 07:15:08;;;;;;;2.30;2.05;;;;;;;10.29;80.68;96133.56;5082294;28;20036;-75
2021/05/12 07:17:36;;;;;;;2.30;1.98;;;;;;;10.26;80.45;96136.66;5082252;28;20040;-75
2021/05/12 07:20:04;;;;;;;3.22;3.03;;;;;;;10.26;80.31;96128.78;5085205;28;20045;-75
2021/05/12 07:22:30;;;;;;;2.30;2.10;;;;;;;10.24;80.16;96128.22;5085144;28;20110;-75
2021/05/12 07:24:56;;;;;;;1.95;1.77;;;;;;;10.25;80.31;96130.63;5085122;28;20055;-75
2021/05/12 07:27:23;;;;;;;3.15;1.95;;;;;;;10.31;80.36;96126.31;5085107;28;20400;-75
2021/05/12 07:29:49;;;;;;;1.80;1.70;;;;;;;10.37;80.20;96125.41;5084945;28;20036;-75
2021/05/12 07:32:16;;;;;;;2.72;1.55;;;;;;;10.41;79.92;96126.56;5084356;28;20048;-75
2021/05/12 07:34:43;;;;;;;2.45;1.45;;;;;;;10.36;79.44;96129.88;5085342;28;20054;-75
2021/05/12 07:37:09;;;;;;;1.80;1.30;;;;;;;10.26;79.35;96126.16;5088069;28;20063;-75
2021/05/12 07:39:36;;;;;;;1.95;1.50;;;;;;;10.18;79.12;96121.22;5083923;28;20044;-75
2021/05/12 07:42:06;;;;;;;2.05;1.73;;;;;;;10.10;79.37;96117.91;5086282;28;20457;-75
2021/05/12 07:44:32;;;;;;;1.50;1.40;;;;;;;10.07;79.61;96117.56;5080375;28;20039;-75
2021/05/12 07:46:59;;;;;;;2.55;1.40;;;;;;;10.07;79.51;96118.34;5087861;28;20044;-75
2021/05/12 07:49:26;;;;;;;2.15;1.55;;;;;;;10.11;80.13;96108.22;5086147;28;20392;-75
2021/05/12 07:51:53;;;;;;;2.05;1.77;;;;;;;10.16;79.87;96097.88;5084548;28;20059;-75
2021/05/12 07:54:19;;;;;;;3.13;1.52;;;;;;;10.21;80.03;96097.22;5087538;28;20495;-75
2021/05/12 07:56:47;;;;;;;3.47;1.35;;;;;;;10.29;79.93;96096.88;5084809;28;20036;-75
2021/05/12 07:59:16;;;;;;;1.20;1.10;;;;;;;10.40;80.05;96096.16;5082286;28;20464;-75
2021/05/12 08:01:44;;;;;;;1.70;1.50;;;;;;;10.53;80.00;96092.53;5088008;28;20469;-75
2021/05/12 08:04:12;;;;;;;1.60;1.50;;;;;;;10.66;79.65;96094.13;5088138;28;20040;-75
2021/05/12 08:06:39;;;;;;;2.50;1.50;;;;;;;10.72;79.39;96087.97;5081599;28;20515;-75
2021/05/12 08:09:07;;;;;;;1.52;1.38;;;;;;;10.85;80.42;96093.00;5083367;28;20045;-74
2021/05/12 08:11:33;;;;;;;2.05;1.05;;;;;;;11.26;81.27;96088.66;5087136;28;20028;-73
2021/05/12 08:13:59;;;;;;;1.98;1.42;;;;;;;11.64;80.19;96082.06;5087039;28;20051;-76
2021/05/12 08:16:26;;;;;;;2.80;1.65;;;;;;;11.70;78.61;96088.22;5080455;28;20033;-75
2021/05/12 08:18:52;;;;;;;3.78;1.58;;;;;;;11.64;77.66;96084.69;5084410;28;20032;-75
2021/05/12 08:21:20;;;;;;;3.30;1.33;;;;;;;11.62;77.78;96080.69;5087597;28;20028;-76
2021/05/12 08:23:46;;;;;;;1.60;1.13;;;;;;;11.54;77.18;96085.28;5085519;28;20032;-75
2021/05/12 08:26:12;;;;;;;2.25;1.50;;;;;;;11.51;77.13;96087.59;5079209;28;20067;-75
2021/05/12 08:28:40;;;;;;;1.65;1.33;;;;;;;11.48;77.49;96085.41;5084470;28;20501;-76
2021/05/12 08:31:06;;;;;;;2.25;1.13;;;;;;;11.44;77.29;96086.91;5083640;28;20049;-75
2021/05/12 08:33:35;;;;;;;1.17;1.00;;;;;;;11.44;77.44;96087.69;5083962;28;20059;-76
2021/05/12 08:36:01;;;;;;;3.80;1.50;;;;;;;11.42;77.12;96081.09;5081098;28;20043;-76
2021/05/12 08:38:27;;;;;;;1.90;1.10;;;;;;;11.39;77.10;96079.72;5084012;28;20036;-76
2021/05/12 08:40:56;;;;;;;2.10;1.30;;;;;;;11.41;77.43;96084.75;5085291;28;20047;-76
2021/05/12 08:43:24;;;;;;;1.40;1.30;;;;;;;11.41;77.15;96085.53;5087398;28;20043;-76
2021/05/12 08:45:51;;;;;;;1.55;1.17;;;;;;;11.44;77.02;96084.28;5082673;28;20099;-76
2021/05/12 08:48:18;;;;;;;2.25;1.50;;;;;;;11.48;77.16;96080.94;5082892;28;20032;-76
2021/05/12 08:50:46;;;;;;;2.25;1.60;;;;;;;11.58;77.13;96081.16;5082613;28;20048;-76
2021/05/12 08:53:13;;;;;;;1.48;1.20;;;;;;;11.65;76.72;96085.47;5084262;28;20036;-76
2021/05/12 08:55:39;;;;;;;2.30;1.20;;;;;;;11.71;76.48;96077.47;5084177;28;20056;-76
2021/05/12 08:58:05;;;;;;;1.35;1.10;;;;;;;11.76;76.08;96071.53;5086109;28;20055;-76
2021/05/12 09:00:33;;;;;;;2.10;1.50;;;;;;;11.80;75.94;96077.91;5080207;28;20452;-75
2021/05/12 09:03:00;;;;;;;1.77;1.50;;;;;;;11.83;75.50;96074.78;5077698;28;20036;-75
2021/05/12 09:05:28;;;;;;;1.40;1.30;;;;;;;11.87;75.50;96072.50;5084729;28;20067;-76
2021/05/12 09:07:55;;;;;;;2.33;1.40;;;;;;;11.93;75.53;96069.75;5089129;28;20055;-75
2021/05/12 09:10:23;;;;;;;5.43;1.50;;;;;;;11.96;75.20;96071.91;5081083;28;20032;-76
2021/05/12 09:12:56;;;;;;;1.52;1.42;;;;;;;12.02;75.24;96069.38;5079556;28;20046;-76
2021/05/12 09:15:26;;;;;;;1.40;1.30;;;;;;;12.07;74.97;96072.09;5080029;28;20048;-76
2021/05/12 09:17:56;;;;;;;2.58;1.30;;;;;;;12.13;74.56;96065.88;5073670;28;20043;-76
2021/05/12 09:20:24;;;;;;;2.58;1.27;;;;;;;12.16;74.57;96068.84;5082192;28;20040;-76
2021/05/12 09:22:59;;;;;;;1.95;1.30;;;;;;;12.15;73.31;96056.72;5086080;28;20032;-76
2021/05/12 09:25:27;;;;;;;2.28;1.70;;;;;;;12.11;73.80;96067.97;5088578;28;20032;-76
2021/05/12 09:28:07;;;;;;;1.80;1.30;;;;;;;12.04;72.60;96065.47;5081596;28;20048;-76
2021/05/12 09:30:37;;;;;;;2.28;1.42;;;;;;;11.97;73.44;96067.47;5078774;28;20031;-76
2021/05/12 09:33:07;;;;;;;1.95;1.05;;;;;;;11.89;73.67;96066.00;5084922;28;20063;-76
2021/05/12 09:35:42;;;;;;;3.70;1.40;;;;;;;11.86;73.74;96074.31;5084778;28;20055;-76
2021/05/12 09:38:18;;;;;;;3.15;2.53;;;;;;;11.83;71.94;96071.38;5073555;28;20049;-76
2021/05/12 09:40:44;;;;;;;1.40;1.30;;;;;;;11.74;73.45;96071.75;5082360;28;20040;-76
2021/05/12 09:43:13;;;;;;;1.70;1.60;;;;;;;11.71;73.40;96074.81;5085666;28;20045;-76
2021/05/12 09:45:39;;;;;;;2.50;1.35;;;;;;;11.63;73.02;96080.44;5081306;28;20487;-76
2021/05/12 09:48:06;;;;;;;2.17;1.20;;;;;;;11.58;72.84;96075.09;5081388;28;20043;-76
2021/05/12 09:50:38;;;;;;;2.08;1.00;;;;;;;11.50;72.63;96080.72;5084553;28;20040;-76
2021/05/12 09:53:14;;;;;;;3.25;1.30;;;;;;;11.51;72.50;96075.25;5082146;28;20043;-76
2021/05/12 09:55:49;;;;;;;1.55;1.20;;;;;;;11.52;72.48;96083.91;5081301;28;20036;-76
2021/05/12 09:58:22;;;;;;;5.13;1.40;;;;;;;11.53;73.36;96088.94;5081206;28;20044;-76
2021/05/12 10:00:51;;;;;;;9.20;2.72;;;;;;;11.59;73.36;96084.59;5092418;28;20086;-76
2021/05/12 10:03:24;;;;;;;3.95;1.45;;;;;;;11.59;71.78;96068.84;5080347;28;20028;-76
2021/05/12 10:06:02;;;;;;;3.20;1.48;;;;;;;11.57;72.44;96087.44;5081005;28;20413;-76
2021/05/12 10:08:31;;;;;;;1.90;1.10;;;;;;;11.60;72.25;96080.13;5085682;28;20032;-76
2021/05/12 10:11:01;;;;;;;2.35;1.02;;;;;;;11.63;72.43;96080.44;5084378;28;20388;-76
2021/05/12 10:13:28;;;;;;;5.72;1.98;;;;;;;11.67;72.32;96070.28;5078408;28;20028;-76
2021/05/12 10:15:55;;;;;;;3.33;1.60;;;;;;;11.70;72.62;96072.47;5083106;28;20056;-76
2021/05/12 10:18:21;;;;;;;1.98;1.30;;;;;;;11.71;72.29;96066.16;5081658;28;20035;-76
2021/05/12 10:20:49;;;;;;;1.20;1.00;;;;;;;11.75;72.19;96065.44;5088579;28;20036;-76
2021/05/12 10:23:16;;;;;;;1.50;1.10;;;;;;;11.79;71.66;96068.41;5076240;28;20408;-76
2021/05/12 10:25:42;;;;;;;2.00;1.30;;;;;;;11.77;71.90;96057.34;5085848;28;20045;-76
2021/05/12 10:28:10;;;;;;;1.58;0.93;;;;;;;11.78;71.81;96061.59;5081641;28;20048;-76
2021/05/12 10:30:36;;;;;;;1.20;1.08;;;;;;;11.82;71.86;96065.31;5084177;28;20040;-76
2021/05/12 10:33:03;;;;;;;1.45;1.10;;;;;;;11.87;71.94;96062.00;5080153;28;20051;-76
2021/05/12 10:35:29;;;;;;;1.55;1.30;;;;;;;11.91;71.43;96058.69;5083047;28;20053;-76
2021/05/12 10:37:56;;;;;;;2.30;1.30;;;;;;;11.92;71.56;96065.53;5087765;28;20068;-76
2021/05/12 10:40:28;;;;;;;1.73;1.20;;;;;;;11.97;71.53;96060.38;5081139;28;20036;-76
2021/05/12 10:46:00;;;;;;;3.05;1.17;;;;;;;12.04;70.21;96067.31;5087274;28;20385;-76
2021/05/12 10:48:47;;;;;;;1.08;1.05;;;;;;;12.10;70.13;96064.53;5076663;28;20036;-76
2021/05/12 10:51:19;;;;;;;3.20;1.25;;;;;;;12.17;70.88;96059.91;5077073;28;20052;-76
2021/05/12 10:53:50;;;;;;;2.58;1.30;;;;;;;12.29;70.61;96054.59;5089972;28;20032;-76
2021/05/12 10:56:18;;;;;;;2.35;1.20;;;;;;;12.28;69.80;96055.63;5086184;28;20381;-76
2021/05/12 10:59:24;;;;;;;2.00;1.48;;;;;;;12.34;68.12;96044.16;5087538;28;21685;-76
2021/05/12 11:01:55;;;;;;;2.35;0.88;;;;;;;12.42;68.68;96050.84;5073100;28;20041;-76
2021/05/12 11:04:23;;;;;;;1.70;1.40;;;;;;;12.49;69.45;96048.84;5085796;28;20044;-76
2021/05/12 11:06:49;;;;;;;2.28;1.42;;;;;;;12.53;69.03;96041.28;5086881;28;20044;-76
2021/05/12 11:09:17;;;;;;;3.17;1.63;;;;;;;12.57;68.87;96039.78;5081919;28;20036;-76
2021/05/12 11:11:44;;;;;;;4.90;2.20;;;;;;;12.60;68.39;96047.22;5084505;28;20056;-76
2021/05/12 11:14:20;;;;;;;5.25;1.88;;;;;;;12.56;67.13;96027.69;5088879;28;20033;-76
2021/05/12 11:17:05;;;;;;;2.28;1.17;;;;;;;12.51;66.48;96025.75;5084937;28;20050;-76
2021/05/12 11:19:35;;;;;;;2.80;1.48;;;;;;;12.51;67.52;96032.84;5085228;28;20051;-76
2021/05/12 11:22:32;;;;;;;1.25;1.15;;;;;;;12.52;65.44;96018.69;5079413;28;20045;-76
2021/05/12 11:25:09;;;;;;;3.83;1.35;;;;;;;12.54;67.24;96032.38;5079068;28;20035;-76
2021/05/12 11:32:36;;;;;;;2.65;1.70;;;;;;;12.55;67.00;96018.19;5083545;28;20023;-76
2021/05/12 11:35:05;;;;;;;1.67;1.30;;;;;;;12.56;66.70;96020.56;5084698;28;20063;-76
2021/05/12 11:37:34;;;;;;;2.88;1.38;;;;;;;12.59;66.56;96024.56;5090606;28;20036;-76
2021/05/12 11:40:01;;;;;;;1.52;0.93;;;;;;;12.59;66.05;96019.28;5089409;28;20032;-76
2021/05/12 11:42:31;;;;;;;1.63;1.08;;;;;;;12.61;65.83;96014.59;5085186;28;20469;-76
2021/05/12 11:45:13;;;;;;;1.75;0.98;;;;;;;12.60;65.31;96015.63;5083943;28;20063;-76
2021/05/12 11:47:41;;;;;;;2.40;1.33;;;;;;;12.64;65.75;96021.19;5079774;28;20472;-76